This is the latest recevied weather packets stored in our database for station/object DL1NUX-15. If no packets are shown the sender has not sent any weather packets the latest 10 day(s).
| Time | Temp. | Humidity | Pressure | Rain* | Wind** | Luminosity | Snow |
|---|---|---|---|---|---|---|---|
| 1778040916 | 11.67° C | 99% | 1007.1 hPa | 0 mm | - | 11 W/m² | - |
| 1778039717 | 11.67° C | 99% | 1007.1 hPa | 0 mm | - | 0 W/m² | - |
| 1778035520 | 11.67° C | 99% | 1007.1 hPa | 0 mm | - | 0 W/m² | - |
| 1778034920 | 11.67° C | 99% | 1007.1 hPa | 0 mm | - | 0 W/m² | - |
| 1778033722 | 11.67° C | 99% | 1007.1 hPa | 0.25 mm | - | 0 W/m² | - |
| 1778033122 | 11.67° C | 99% | 1007.2 hPa | 0.25 mm | - | 0 W/m² | - |
| 1778030725 | 11.67° C | 99% | 1007.3 hPa | 0 mm | - | 0 W/m² | - |
| 1778029524 | 11.67° C | 99% | 1007.4 hPa | 0 mm | - | 0 W/m² | - |
| 1778028924 | 11.67° C | 99% | 1007.5 hPa | 0 mm | - | 0 W/m² | - |
| 1778027727 | 11.67° C | 99% | 1007.7 hPa | 0 mm | - | 0 W/m² | - |
| 1778025928 | 12.22° C | 99% | 1007.9 hPa | 0 mm | - | 0 W/m² | - |
| 1778025328 | 12.22° C | 99% | 1008 hPa | 0 mm | - | 0 W/m² | - |
| 1778024128 | 11.67° C | 99% | 1008 hPa | 0 mm | - | 0 W/m² | - |
| 1778023529 | 11.67° C | 99% | 1008 hPa | 0 mm | - | 0 W/m² | - |
| 1778022929 | 11.67° C | 99% | 1008 hPa | 0 mm | - | 0 W/m² | - |
| 1778021130 | 11.67° C | 99% | 1007.8 hPa | 0 mm | - | 0 W/m² | - |
| 1778020530 | 11.67° C | 99% | 1007.8 hPa | 0 mm | - | 0 W/m² | - |
| 1778018132 | 12.22° C | 99% | 1008 hPa | 0 mm | - | 0 W/m² | - |
| 1778017533 | 12.22° C | 99% | 1008 hPa | 0 mm | - | 0 W/m² | - |
| 1778016333 | 12.22° C | 99% | 1008.2 hPa | 0.25 mm | - | 0 W/m² | - |
| 1778012736 | 12.22° C | 99% | 1008.1 hPa | 0 mm | - | 0 W/m² | - |
| 1778012136 | 12.22° C | 99% | 1008 hPa | 0 mm | - | 0 W/m² | - |
| 1778009139 | 12.78° C | 99% | 1007.9 hPa | 3.81 mm | - | 0 W/m² | - |
| 1778004941 | 12.78° C | 99% | 1007.4 hPa | 13.72 mm | - | 0 W/m² | - |
| 1778001943 | 13.33° C | 96% | 1007.5 hPa | 3.3 mm | - | 0 W/m² | - |
* Rain latest hour (hover to see other rain measurements)
** Current wind speed in m/s (hover to see current wind gust speed)